createdAt,value
2019-02-18T00:02:36.140Z,7.68
2019-02-18T00:05:23.571Z,7.70
2019-02-18T00:08:11.193Z,7.70
2019-02-18T00:10:58.622Z,7.71
2019-02-18T00:13:46.348Z,7.69
2019-02-18T00:16:33.465Z,7.61
2019-02-18T00:19:20.888Z,7.59
2019-02-18T00:22:08.009Z,7.59
2019-02-18T00:24:55.738Z,7.58
2019-02-18T00:27:42.855Z,7.56
2019-02-18T00:30:30.291Z,7.51
2019-02-18T00:33:17.652Z,7.46
2019-02-18T00:36:04.838Z,7.38
2019-02-18T00:38:52.549Z,7.34
2019-02-18T00:41:40.184Z,7.29
2019-02-18T00:44:27.607Z,7.32
2019-02-18T00:47:14.901Z,7.20
2019-02-18T00:50:02.044Z,7.25
2019-02-18T00:52:49.577Z,7.27
2019-02-18T00:55:37.299Z,7.31
2019-02-18T00:58:25.034Z,7.32
2019-02-18T01:01:12.662Z,7.31
2019-02-18T01:04:00.599Z,7.33
2019-02-18T01:06:47.815Z,7.29
2019-02-18T01:09:35.239Z,7.27
2019-02-18T01:12:23.283Z,7.25
2019-02-18T01:15:14.905Z,7.26
2019-02-18T01:18:02.227Z,7.22
2019-02-18T01:20:49.958Z,7.13
2019-02-18T01:23:37.070Z,7.05
2019-02-18T01:26:24.601Z,6.99
2019-02-18T01:29:12.342Z,7.03
2019-02-18T01:32:00.069Z,7.00
2019-02-18T01:34:47.587Z,6.98
2019-02-18T01:37:44.845Z,6.93
2019-02-18T01:40:24.176Z,6.82
2019-02-18T01:43:11.605Z,6.80
2019-02-18T01:45:58.921Z,6.79
2019-02-18T01:48:46.142Z,6.55
2019-02-18T01:51:33.262Z,6.62
2019-02-18T01:54:20.944Z,6.64
2019-02-18T01:57:08.413Z,6.63
2019-02-18T01:59:55.838Z,6.63
2019-02-18T02:02:43.603Z,6.62
2019-02-18T02:05:30.687Z,6.59
2019-02-18T02:08:18.317Z,6.53
2019-02-18T02:11:05.947Z,6.49
2019-02-18T02:13:53.270Z,6.48
2019-02-18T02:16:41.312Z,6.48
2019-02-18T02:19:28.841Z,6.41
2019-02-18T02:22:16.049Z,6.35
2019-02-18T02:25:03.883Z,6.25
2019-02-18T02:27:51.412Z,6.19
2019-02-18T02:30:38.734Z,6.15
2019-02-18T02:33:25.955Z,6.08
2019-02-18T02:36:13.685Z,6.02
2019-02-18T02:39:00.901Z,5.92
2019-02-18T02:41:48.225Z,5.88
2019-02-18T02:44:35.349Z,5.83
2019-02-18T02:47:22.564Z,5.82
2019-02-18T02:50:10.124Z,5.81
2019-02-18T02:52:57.623Z,5.78
2019-02-18T02:55:45.465Z,5.73
2019-02-18T02:58:32.974Z,5.71
2019-02-18T03:01:20.602Z,5.73
2019-02-18T03:04:08.129Z,5.74
2019-02-18T03:06:55.450Z,5.60
2019-02-18T03:09:42.467Z,5.73
2019-02-18T03:12:29.993Z,5.73
2019-02-18T03:15:17.837Z,5.71
2019-02-18T03:18:05.350Z,5.68
2019-02-18T03:20:52.776Z,5.60
2019-02-18T03:23:39.900Z,5.54
2019-02-18T03:26:27.992Z,5.49
2019-02-18T03:29:33.802Z,5.47
2019-02-18T03:32:21.314Z,5.45
2019-02-18T03:35:08.743Z,5.41
2019-02-18T03:37:56.471Z,5.39
2019-02-18T03:40:44.199Z,5.37
2019-02-18T03:43:31.942Z,5.33
2019-02-18T03:46:18.895Z,5.32
2019-02-18T03:49:06.475Z,5.29
2019-02-18T03:51:54.320Z,5.30
2019-02-18T03:54:41.422Z,5.25
2019-02-18T03:57:29.359Z,5.21
2019-02-18T04:00:17.296Z,5.21
2019-02-18T04:03:05.045Z,5.21
2019-02-18T04:05:52.246Z,5.18
2019-02-18T04:08:43.246Z,5.14
2019-02-18T04:11:29.556Z,5.08
2019-02-18T04:14:16.682Z,5.09
2019-02-18T04:17:04.408Z,5.08
2019-02-18T04:19:52.388Z,5.07
2019-02-18T04:22:39.772Z,4.99
2019-02-18T04:25:27.091Z,4.95
2019-02-18T04:28:14.813Z,4.99
2019-02-18T04:31:02.240Z,4.99
2019-02-18T04:33:49.356Z,4.99
2019-02-18T04:36:36.885Z,4.99
2019-02-18T04:39:24.407Z,5.01
2019-02-18T04:42:11.636Z,5.01
2019-02-18T04:44:59.357Z,5.02
2019-02-18T04:47:46.475Z,5.05
2019-02-18T04:50:33.900Z,5.03
2019-02-18T04:53:21.425Z,5.03
2019-02-18T04:56:08.750Z,4.97
2019-02-18T04:58:56.173Z,4.94
2019-02-18T05:01:43.398Z,4.97
2019-02-18T05:04:30.718Z,4.95
2019-02-18T05:07:18.035Z,4.97
2019-02-18T05:10:08.426Z,4.90
2019-02-18T05:12:55.866Z,4.83
2019-02-18T05:15:42.970Z,4.91
2019-02-18T05:18:30.806Z,5.00
2019-02-18T05:21:18.446Z,5.01
2019-02-18T05:24:05.855Z,5.03
2019-02-18T05:26:52.974Z,5.09
2019-02-18T05:29:42.755Z,5.13
2019-02-18T05:32:30.278Z,5.10
2019-02-18T05:35:17.749Z,5.05
2019-02-18T05:38:05.333Z,4.99
2019-02-18T05:40:52.657Z,4.96
2019-02-18T05:43:40.800Z,4.93
2019-02-18T05:46:28.743Z,4.87
2019-02-18T05:49:16.059Z,4.87
2019-02-18T05:52:03.681Z,4.84
2019-02-18T05:54:51.412Z,4.83
2019-02-18T05:57:38.942Z,4.77
2019-02-18T06:00:26.669Z,4.75
2019-02-18T06:03:15.652Z,4.71
2019-02-18T06:06:03.155Z,4.64
2019-02-18T06:08:50.580Z,4.61
2019-02-18T06:11:37.695Z,4.58
2019-02-18T06:14:25.230Z,4.59
2019-02-18T06:17:13.042Z,4.57
2019-02-18T06:20:02.124Z,4.59
2019-02-18T06:22:49.645Z,4.62
2019-02-18T06:25:37.379Z,4.64
2019-02-18T06:28:25.115Z,4.58
2019-02-18T06:31:12.429Z,4.57
2019-02-18T06:33:59.958Z,4.60
2019-02-18T06:36:47.690Z,4.63
2019-02-18T06:39:41.189Z,4.66
2019-02-18T06:42:24.276Z,4.67
2019-02-18T06:45:30.234Z,4.71
2019-02-18T06:48:34.348Z,4.73
2019-02-18T06:51:21.876Z,4.69
2019-02-18T06:54:09.306Z,4.64
2019-02-18T06:56:58.373Z,4.64
2019-02-18T06:59:47.529Z,4.70
2019-02-18T07:02:36.899Z,4.71
2019-02-18T07:05:35.181Z,4.73
2019-02-18T07:08:24.245Z,4.76
2019-02-18T07:11:18.939Z,4.79
2019-02-18T07:14:06.364Z,4.92
2019-02-18T07:16:54.202Z,4.98
2019-02-18T07:19:41.206Z,5.04
2019-02-18T07:22:28.834Z,5.11
2019-02-18T07:25:16.157Z,5.22
2019-02-18T07:28:03.589Z,5.37
2019-02-18T07:30:51.517Z,5.52
2019-02-18T07:33:39.248Z,5.69
2019-02-18T07:36:26.694Z,5.92
2019-02-18T07:39:14.095Z,6.13
2019-02-18T07:42:01.952Z,6.33
2019-02-18T07:44:50.001Z,6.63
2019-02-18T07:47:39.590Z,6.86
2019-02-18T07:50:27.130Z,7.09
2019-02-18T07:53:14.902Z,7.31
2019-02-18T07:56:01.915Z,7.54
2019-02-18T07:58:49.442Z,7.83
2019-02-18T08:01:36.559Z,8.05
2019-02-18T08:04:23.993Z,8.30
2019-02-18T08:07:12.644Z,8.52
2019-02-18T08:10:00.300Z,8.68
2019-02-18T08:12:51.465Z,8.91
2019-02-18T08:15:41.176Z,9.11
2019-02-18T08:18:28.681Z,9.36
2019-02-18T08:21:16.209Z,9.54
2019-02-18T08:24:03.323Z,9.69
2019-02-18T08:26:51.069Z,9.92
2019-02-18T08:29:38.477Z,9.91
2019-02-18T08:32:26.212Z,9.78
2019-02-18T08:35:14.240Z,9.38
2019-02-18T08:38:01.973Z,9.59
2019-02-18T08:40:51.968Z,10.13
2019-02-18T08:43:44.616Z,10.10
2019-02-18T08:46:33.588Z,10.55
2019-02-18T08:49:21.200Z,10.81
2019-02-18T08:52:08.939Z,10.93
2019-02-18T08:54:56.995Z,11.27
2019-02-18T08:57:44.907Z,11.60
2019-02-18T09:00:32.668Z,11.91
2019-02-18T09:03:19.858Z,12.10
2019-02-18T09:06:07.289Z,12.32
2019-02-18T09:08:54.722Z,12.49
2019-02-18T09:11:42.132Z,12.78
2019-02-18T09:14:31.074Z,13.13
2019-02-18T09:17:18.693Z,13.32
2019-02-18T09:20:08.461Z,13.34
2019-02-18T09:22:57.869Z,13.60
2019-02-18T09:25:47.145Z,13.70
2019-02-18T09:28:34.456Z,14.04
2019-02-18T09:31:23.424Z,14.15
2019-02-18T09:34:11.693Z,14.26
2019-02-18T09:36:59.305Z,14.28
2019-02-18T09:39:47.018Z,14.38
2019-02-18T09:42:34.550Z,14.66
2019-02-18T09:45:22.586Z,14.79
2019-02-18T09:48:09.905Z,15.01
2019-02-18T09:50:59.909Z,15.10
2019-02-18T09:53:46.393Z,15.24
2019-02-18T09:56:36.829Z,15.32
2019-02-18T09:59:23.394Z,15.48
2019-02-18T10:02:11.122Z,15.50
2019-02-18T10:04:58.580Z,15.71
2019-02-18T10:07:46.177Z,15.98
2019-02-18T10:10:33.610Z,16.15
2019-02-18T10:13:21.332Z,16.37
2019-02-18T10:16:08.759Z,16.41
2019-02-18T10:18:56.588Z,16.63
2019-02-18T10:21:43.605Z,16.65
2019-02-18T10:24:31.028Z,16.67
2019-02-18T10:27:18.042Z,16.69
2019-02-18T10:30:07.456Z,16.95
2019-02-18T10:32:54.323Z,17.22
2019-02-18T10:35:41.546Z,17.48
2019-02-18T10:38:29.069Z,17.48
2019-02-18T10:41:19.109Z,17.51
2019-02-18T10:44:05.969Z,17.59
2019-02-18T10:46:53.390Z,17.62
2019-02-18T10:49:40.763Z,17.72
2019-02-18T10:52:28.339Z,17.85
2019-02-18T10:55:16.070Z,17.96
2019-02-18T10:58:03.394Z,17.90
2019-02-18T11:00:51.158Z,17.98
2019-02-18T11:03:39.142Z,18.18
2019-02-18T11:06:26.689Z,18.38
2019-02-18T11:09:14.114Z,18.59
2019-02-18T11:12:01.740Z,18.69
2019-02-18T11:14:49.168Z,18.68
2019-02-18T11:17:39.142Z,18.77
2019-02-18T11:20:26.266Z,18.83
2019-02-18T11:23:13.691Z,18.88
2019-02-18T11:26:01.628Z,18.81
2019-02-18T11:28:49.357Z,18.92
2019-02-18T11:31:36.783Z,19.00
2019-02-18T11:34:24.103Z,19.02
2019-02-18T11:37:13.745Z,18.84
2019-02-18T11:40:00.799Z,19.11
2019-02-18T11:42:48.530Z,19.31
2019-02-18T11:45:36.157Z,19.28
2019-02-18T11:48:23.580Z,19.40
2019-02-18T11:51:11.530Z,19.46
2019-02-18T11:53:58.739Z,19.53
2019-02-18T11:56:46.678Z,19.80
2019-02-18T11:59:34.101Z,19.84
2019-02-18T12:02:21.965Z,19.69
2019-02-18T12:05:11.245Z,19.82
2019-02-18T12:07:58.531Z,19.77
2019-02-18T12:10:45.941Z,19.92
2019-02-18T12:13:33.366Z,20.10
2019-02-18T12:16:21.103Z,20.22
2019-02-18T12:19:08.112Z,20.31
2019-02-18T12:21:55.537Z,20.24
2019-02-18T12:24:43.268Z,20.44
2019-02-18T12:27:32.119Z,20.22
2019-02-18T12:30:19.917Z,20.16
2019-02-18T12:33:07.282Z,20.18
2019-02-18T12:35:55.114Z,20.11
2019-02-18T12:38:42.750Z,20.14
2019-02-18T12:41:30.271Z,20.24
2019-02-18T12:44:17.803Z,20.31
2019-02-18T12:47:06.245Z,20.34
2019-02-18T12:49:54.150Z,20.31
2019-02-18T12:52:42.016Z,19.93
2019-02-18T12:55:29.907Z,19.96
2019-02-18T12:58:17.667Z,20.25
2019-02-18T13:01:06.808Z,20.41
2019-02-18T13:03:53.867Z,20.51
2019-02-18T13:06:41.392Z,20.63
2019-02-18T13:09:29.230Z,20.61
2019-02-18T13:12:16.957Z,20.65
2019-02-18T13:15:06.655Z,20.57
2019-02-18T13:17:53.953Z,20.60
2019-02-18T13:20:41.788Z,20.75
2019-02-18T13:23:29.722Z,20.81
2019-02-18T13:26:16.740Z,20.72
2019-02-18T13:29:04.367Z,20.76
2019-02-18T13:31:51.895Z,20.75
2019-02-18T13:34:39.522Z,20.68
2019-02-18T13:37:27.356Z,20.52
2019-02-18T13:40:16.625Z,20.57
2019-02-18T13:43:04.050Z,20.48
2019-02-18T13:45:51.679Z,20.53
2019-02-18T13:48:38.791Z,20.50
2019-02-18T13:51:26.936Z,20.67
2019-02-18T13:54:14.463Z,20.70
2019-02-18T13:57:09.770Z,20.77
2019-02-18T13:59:51.156Z,20.79
2019-02-18T14:02:39.006Z,20.68
2019-02-18T14:05:26.205Z,20.49
2019-02-18T14:08:13.731Z,20.51
2019-02-18T14:11:01.097Z,20.08
2019-02-18T14:13:48.582Z,20.28
2019-02-18T14:16:36.210Z,20.26
2019-02-18T14:19:24.047Z,20.21
2019-02-18T14:22:12.083Z,20.32
2019-02-18T14:24:59.818Z,20.36
2019-02-18T14:27:47.851Z,20.39
2019-02-18T14:30:35.584Z,20.33
2019-02-18T14:33:23.219Z,20.43
2019-02-18T14:36:10.743Z,20.36
2019-02-18T14:38:58.478Z,20.08
2019-02-18T14:41:46.108Z,20.16
2019-02-18T14:44:33.530Z,20.06
2019-02-18T14:47:21.259Z,19.86
2019-02-18T14:50:10.113Z,19.97
2019-02-18T14:52:58.360Z,19.97
2019-02-18T14:55:46.091Z,19.90
2019-02-18T14:58:33.616Z,19.83
2019-02-18T15:01:20.939Z,19.69
2019-02-18T15:04:08.873Z,19.78
2019-02-18T15:06:56.211Z,19.73
2019-02-18T15:09:43.930Z,19.55
2019-02-18T15:12:33.278Z,19.39
2019-02-18T15:15:21.087Z,19.40
2019-02-18T15:18:09.682Z,19.35
2019-02-18T15:20:56.697Z,19.26
2019-02-18T15:23:43.817Z,19.34
2019-02-18T15:26:31.743Z,19.24
2019-02-18T15:29:19.382Z,19.19
2019-02-18T15:32:07.056Z,19.06
2019-02-18T15:34:54.740Z,18.89
2019-02-18T15:37:42.062Z,18.94
2019-02-18T15:40:29.799Z,18.99
2019-02-18T15:43:17.423Z,18.87
2019-02-18T15:46:05.874Z,18.54
2019-02-18T15:48:53.499Z,18.57
2019-02-18T15:51:40.923Z,18.50
2019-02-18T15:54:28.570Z,18.37
2019-02-18T15:57:16.078Z,18.27
2019-02-18T16:00:04.735Z,18.13
2019-02-18T16:02:52.155Z,17.95
2019-02-18T16:05:39.580Z,17.82
2019-02-18T16:08:27.213Z,17.77
2019-02-18T16:11:15.768Z,17.69
2019-02-18T16:14:03.388Z,17.54
2019-02-18T16:16:51.325Z,17.35
2019-02-18T16:19:38.853Z,17.14
2019-02-18T16:22:26.481Z,16.91
2019-02-18T16:25:16.577Z,16.71
2019-02-18T16:28:03.701Z,16.56
2019-02-18T16:30:51.214Z,16.39
2019-02-18T16:33:38.945Z,16.27
2019-02-18T16:36:26.065Z,15.99
2019-02-18T16:39:13.903Z,15.99
2019-02-18T16:42:01.727Z,15.84
2019-02-18T16:44:49.463Z,15.65
2019-02-18T16:47:37.138Z,15.45
2019-02-18T16:50:25.042Z,15.29
2019-02-18T16:53:12.825Z,15.08
2019-02-18T16:56:00.698Z,14.88
2019-02-18T16:58:48.424Z,14.63
2019-02-18T17:01:36.502Z,13.33
2019-02-18T17:04:23.992Z,13.13
2019-02-18T17:07:11.831Z,13.28
2019-02-18T17:09:59.676Z,13.38
2019-02-18T17:12:48.728Z,13.50
2019-02-18T17:15:36.041Z,13.56
2019-02-18T17:18:23.785Z,13.56
2019-02-18T17:21:11.726Z,13.43
2019-02-18T17:23:59.450Z,13.35
2019-02-18T17:26:47.070Z,13.24
2019-02-18T17:29:34.399Z,13.07
2019-02-18T17:32:21.904Z,12.99
2019-02-18T17:35:12.093Z,12.95
2019-02-18T17:37:59.538Z,12.89
2019-02-18T17:40:47.159Z,12.79
2019-02-18T17:43:34.183Z,12.71
2019-02-18T17:46:22.015Z,12.55
2019-02-18T17:49:09.650Z,12.44
2019-02-18T17:51:57.267Z,12.35
2019-02-18T17:54:44.388Z,12.33
2019-02-18T17:57:31.912Z,12.19
2019-02-18T18:00:23.957Z,12.06
2019-02-18T18:03:11.272Z,11.85
2019-02-18T18:05:58.894Z,11.78
2019-02-18T18:08:47.660Z,11.58
2019-02-18T18:11:35.590Z,11.38
2019-02-18T18:14:23.003Z,11.23
2019-02-18T18:17:10.333Z,11.19
2019-02-18T18:19:57.553Z,11.20
2019-02-18T18:22:44.978Z,11.25
2019-02-18T18:25:32.811Z,11.29
2019-02-18T18:28:20.438Z,11.23
2019-02-18T18:31:08.174Z,11.06
2019-02-18T18:33:55.726Z,10.59
2019-02-18T18:36:43.019Z,10.64
2019-02-18T18:39:30.959Z,10.60
2019-02-18T18:42:19.002Z,10.60
2019-02-18T18:45:09.552Z,10.58
2019-02-18T18:47:58.661Z,10.52
2019-02-18T18:50:46.183Z,10.39
2019-02-18T18:53:33.921Z,10.09
2019-02-18T18:56:21.131Z,10.17
2019-02-18T18:59:08.660Z,10.16
2019-02-18T19:01:56.394Z,10.02
2019-02-18T19:04:44.229Z,9.92
2019-02-18T19:07:32.365Z,9.90
2019-02-18T19:10:20.303Z,9.85
2019-02-18T19:13:07.725Z,9.76
2019-02-18T19:15:55.353Z,9.58
2019-02-18T19:18:42.985Z,9.54
2019-02-18T19:21:30.508Z,9.57
2019-02-18T19:24:18.036Z,9.49
2019-02-18T19:27:06.040Z,9.50
2019-02-18T19:29:53.396Z,9.39
2019-02-18T19:32:40.617Z,9.21
2019-02-18T19:35:28.451Z,9.29
2019-02-18T19:38:16.081Z,9.35
2019-02-18T19:41:03.670Z,9.31
2019-02-18T19:43:50.933Z,9.30
2019-02-18T19:46:38.355Z,9.30
2019-02-18T19:49:25.173Z,9.35
2019-02-18T19:52:12.634Z,9.25
2019-02-18T19:55:00.288Z,9.19
2019-02-18T19:57:47.947Z,8.89
2019-02-18T20:00:37.426Z,8.71
2019-02-18T20:03:24.537Z,8.88
2019-02-18T20:06:12.067Z,8.97
2019-02-18T20:08:59.613Z,8.98
2019-02-18T20:11:47.115Z,9.01
2019-02-18T20:14:34.949Z,9.01
2019-02-18T20:17:23.706Z,9.00
2019-02-18T20:20:15.488Z,8.92
2019-02-18T20:23:03.176Z,8.89
2019-02-18T20:25:51.056Z,8.83
2019-02-18T20:28:38.389Z,8.87
2019-02-18T20:31:25.978Z,8.90
2019-02-18T20:34:13.687Z,8.94
2019-02-18T20:37:01.337Z,9.05
2019-02-18T20:39:48.844Z,9.22
2019-02-18T20:42:37.017Z,9.20
2019-02-18T20:45:24.705Z,9.25
2019-02-18T20:48:12.472Z,9.28
2019-02-18T20:51:00.709Z,9.45
2019-02-18T20:53:47.933Z,9.57
2019-02-18T20:56:35.638Z,9.48
2019-02-18T20:59:28.540Z,9.58
2019-02-18T21:02:16.219Z,9.74
2019-02-18T21:05:24.737Z,9.89
2019-02-18T21:08:12.676Z,9.94
2019-02-18T21:11:00.718Z,10.12
2019-02-18T21:13:48.141Z,10.13
2019-02-18T21:16:35.871Z,10.14
2019-02-18T21:19:22.986Z,10.11
2019-02-18T21:22:10.106Z,10.05
2019-02-18T21:24:57.528Z,10.02
2019-02-18T21:27:45.470Z,9.98
2019-02-18T21:30:32.991Z,9.94
2019-02-18T21:33:20.415Z,9.90
2019-02-18T21:36:08.144Z,9.87
2019-02-18T21:38:55.678Z,9.85
2019-02-18T21:41:43.712Z,9.77
2019-02-18T21:44:31.242Z,9.64
2019-02-18T21:47:19.177Z,9.20
2019-02-18T21:50:08.567Z,8.88
2019-02-18T21:52:56.274Z,8.76
2019-02-18T21:55:43.904Z,8.85
2019-02-18T21:58:31.430Z,8.76
2019-02-18T22:01:18.956Z,8.64
2019-02-18T22:04:06.588Z,8.60
2019-02-18T22:06:54.008Z,8.56
2019-02-18T22:09:41.023Z,8.56
2019-02-18T22:12:28.755Z,8.56
2019-02-18T22:15:16.564Z,8.54
2019-02-18T22:18:04.116Z,8.45
2019-02-18T22:20:51.847Z,8.32
2019-02-18T22:23:39.274Z,8.26
2019-02-18T22:26:26.597Z,8.22
2019-02-18T22:29:14.019Z,8.10
2019-02-18T22:32:01.646Z,8.06
2019-02-18T22:34:48.865Z,8.04
2019-02-18T22:37:57.287Z,8.00
2019-02-18T22:40:44.810Z,7.95
2019-02-18T22:43:32.232Z,7.99
2019-02-18T22:46:19.662Z,8.04
2019-02-18T22:49:07.517Z,8.02
2019-02-18T22:51:54.403Z,8.04
2019-02-18T22:54:42.041Z,8.03
2019-02-18T22:57:30.174Z,8.05
2019-02-18T23:00:37.400Z,7.99
2019-02-18T23:03:25.091Z,8.02
2019-02-18T23:06:13.986Z,7.96
2019-02-18T23:09:01.355Z,7.91
2019-02-18T23:11:48.869Z,7.84
2019-02-18T23:14:36.273Z,7.80
2019-02-18T23:17:23.752Z,7.86
2019-02-18T23:20:11.225Z,7.92
2019-02-18T23:22:58.497Z,7.94
2019-02-18T23:25:45.868Z,7.95
2019-02-18T23:28:33.958Z,8.01
2019-02-18T23:31:21.586Z,8.13
2019-02-18T23:34:09.010Z,8.20
2019-02-18T23:36:56.536Z,8.18
2019-02-18T23:39:43.922Z,8.13
2019-02-18T23:42:31.487Z,8.08
2019-02-18T23:45:19.118Z,8.02
2019-02-18T23:48:06.721Z,8.00
2019-02-18T23:50:54.171Z,8.02
2019-02-18T23:53:41.288Z,8.07
2019-02-18T23:56:28.917Z,8.03
2019-02-18T23:59:16.339Z,8.03
